Time;durP1;ratioP1;P1;durP2;ratioP2;P2;SDS_P1;SDS_P2;PMS_P1;PMS_P2;Temp;Humidity;BMP_temperature;BMP_pressure;BME280_temperature;BME280_humidity;BME280_pressure;Samples;Min_cycle;Max_cycle;Signal;HPM_P1;HPM_P2
2022/07/11 00:02:08;;;;;;;15.45;4.53;;;;;;;;;;4882160;29;20056;-68
2022/07/11 00:04:35;;;;;;;20.35;5.22;;;16.00;99.90;;;;;;4882216;29;20577;-68
2022/07/11 00:07:02;;;;;;;14.25;4.47;;;16.10;99.90;;;;;;4897639;29;20508;-68
2022/07/11 00:09:29;;;;;;;14.68;4.72;;;16.00;99.90;;;;;;4882029;29;20044;-68
2022/07/11 00:11:55;;;;;;;12.75;4.60;;;;;;;;;;4882076;29;20049;-68
2022/07/11 00:14:21;;;;;;;14.05;4.95;;;;;;;;;;4882001;29;20040;-68
2022/07/11 00:16:48;;;;;;;16.45;5.10;;;16.20;99.90;;;;;;4881935;29;20127;-68
2022/07/11 00:19:14;;;;;;;12.02;5.47;;;;;;;;;;4882024;29;20044;-68
2022/07/11 00:21:40;;;;;;;10.27;5.03;;;;;;;;;;4913369;29;20045;-68
2022/07/11 00:24:07;;;;;;;16.95;5.00;;;;;;;;;;4881923;29;20131;-68
2022/07/11 00:26:37;;;;;;;14.38;4.97;;;16.00;99.90;;;;;;4881975;29;20048;-68
2022/07/11 00:29:04;;;;;;;15.77;4.95;;;16.00;99.90;;;;;;4898596;29;20559;-68
2022/07/11 00:31:30;;;;;;;21.58;6.10;;;;;;;;;;4912980;29;20056;-68
2022/07/11 00:33:57;;;;;;;16.13;5.88;;;15.50;99.90;;;;;;4881840;29;20100;-68
2022/07/11 00:36:23;;;;;;;15.40;5.30;;;;;;;;;;4866329;29;20056;-68
2022/07/11 00:38:49;;;;;;;16.23;5.65;;;;;;;;;;4881675;29;20048;-68
2022/07/11 00:41:16;;;;;;;15.82;5.90;;;;;;;;;;4881312;29;20048;-68
2022/07/11 00:43:43;;;;;;;24.38;6.13;;;;;;;;;;4881532;29;20084;-68
2022/07/11 00:46:10;;;;;;;14.77;5.45;;;15.80;99.90;;;;;;4881546;29;20045;-68
2022/07/11 00:48:36;;;;;;;20.05;5.45;;;;;;;;;;4865992;29;20135;-68
2022/07/11 00:51:03;;;;;;;18.95;4.75;;;15.90;99.90;;;;;;4881428;29;20048;-68
2022/07/11 00:53:34;;;;;;;14.55;5.35;;;16.00;99.90;;;;;;4912960;29;20365;-68
2022/07/11 00:56:01;;;;;;;17.90;5.13;;;15.80;99.90;;;;;;4881640;29;20485;-68
2022/07/11 00:58:27;;;;;;;20.58;5.75;;;;;;;;;;4881364;29;20119;-68
2022/07/11 01:00:53;;;;;;;13.45;4.93;;;;;;;;;;4881411;29;20127;-68
2022/07/11 01:03:19;;;;;;;13.25;4.50;;;;;;;;;;4881478;29;20045;-68
2022/07/11 01:05:46;;;;;;;16.17;4.68;;;17.10;99.90;;;;;;4881333;29;20052;-68
2022/07/11 01:08:12;;;;;;;15.48;4.93;;;15.30;99.90;;;;;;4881414;29;20073;-68
2022/07/11 01:10:38;;;;;;;12.65;5.05;;;;;;;;;;4898477;29;20067;-68
2022/07/11 01:13:04;;;;;;;14.45;5.65;;;;;;;;;;4881571;29;20040;-69
2022/07/11 01:15:31;;;;;;;16.73;4.93;;;;;;;;;;4881231;29;20052;-68
2022/07/11 01:17:57;;;;;;;15.85;5.03;;;;;;;;;;4881456;29;20431;-69
2022/07/11 01:20:23;;;;;;;11.50;4.63;;;;;;;;;;4898143;29;20491;-68
2022/07/11 01:22:54;;;;;;;15.95;5.25;;;16.80;99.90;;;;;;4881448;29;20045;-69
2022/07/11 01:25:30;;;;;;;21.67;5.20;;;;;;;;;;4898154;29;20124;-69
2022/07/11 01:28:08;;;;;;;15.50;5.20;;;16.10;99.90;;;;;;4881291;29;20200;-69
2022/07/11 01:30:35;;;;;;;15.50;5.20;;;;;;;;;;4881124;29;20127;-69
2022/07/11 01:33:01;;;;;;;16.20;4.80;;;;;;;;;;4865471;29;20045;-68
2022/07/11 01:35:28;;;;;;;10.32;4.70;;;;;;;;;;4881213;29;20609;-68
2022/07/11 01:37:54;;;;;;;13.20;4.28;;;;;;;;;;4881008;29;20077;-69
2022/07/11 01:40:20;;;;;;;8.98;3.85;;;;;;;;;;4881165;29;20051;-69
2022/07/11 01:42:46;;;;;;;10.73;3.97;;;;;;;;;;4881095;29;20048;-68
2022/07/11 01:45:13;;;;;;;7.22;3.75;;;;;;;;;;4880913;29;20045;-68
2022/07/11 01:47:39;;;;;;;9.43;3.95;;;;;;;;;;4865748;29;20188;-68
2022/07/11 01:50:06;;;;;;;9.10;4.05;;;;;;;;;;4865421;29;20044;-68
2022/07/11 01:52:32;;;;;;;11.27;3.70;;;;;;;;;;4881201;29;20060;-68
2022/07/11 01:54:58;;;;;;;12.00;3.67;;;;;;;;;;4884756;29;20395;-68
2022/07/11 01:57:24;;;;;;;9.30;3.65;;;;;;;;;;4884493;29;20048;-68
2022/07/11 01:59:50;;;;;;;10.48;3.40;;;;;;;;;;4884535;29;20048;-68
2022/07/11 02:02:16;;;;;;;13.57;3.90;;;14.90;99.90;;;;;;4884301;29;20044;-68
2022/07/11 02:04:42;;;;;;;11.70;3.65;;;;;;;;;;4884255;29;20487;-68
2022/07/11 02:07:11;;;;;;;13.70;4.07;;;;;;;;;;4868762;29;20131;-68
2022/07/11 02:09:37;;;;;;;14.52;3.78;;;;;;;;;;4884529;29;20052;-68
2022/07/11 02:12:04;;;;;;;13.30;4.07;;;;;;;;;;4868842;29;20045;-68
2022/07/11 02:14:30;;;;;;;13.88;4.00;;;;;;;;;;4884070;29;20044;-68
2022/07/11 02:16:56;;;;;;;11.80;3.92;;;;;;;;;;4884046;29;20477;-68
2022/07/11 02:19:22;;;;;;;9.90;3.88;;;;;;;;;;4884168;29;20481;-68
2022/07/11 02:21:48;;;;;;;8.85;4.20;;;;;;;;;;4884060;29;20052;-68
2022/07/11 02:24:14;;;;;;;9.82;3.72;;;;;;;;;;4884319;29;20056;-68
2022/07/11 02:26:40;;;;;;;10.60;3.90;;;;;;;;;;4883909;29;20040;-68
2022/07/11 02:29:07;;;;;;;12.88;4.03;;;;;;;;;;4883878;29;20041;-69
2022/07/11 02:31:33;;;;;;;15.75;3.97;;;;;;;;;;4883938;29;20048;-71
2022/07/11 02:33:59;;;;;;;5.72;3.40;;;;;;;;;;4900676;29;20044;-71
2022/07/11 02:36:25;;;;;;;10.68;3.80;;;;;;;;;;4883704;29;20485;-71
2022/07/11 02:38:51;;;;;;;7.43;3.58;;;;;;;;;;4883788;29;20489;-71
2022/07/11 02:41:18;;;;;;;9.95;3.50;;;;;;;;;;4883695;29;20045;-71
2022/07/11 02:43:44;;;;;;;10.18;3.08;;;;;;;;;;4883975;29;20060;-70
2022/07/11 02:46:10;;;;;;;9.75;3.42;;;15.60;99.90;;;;;;4899093;29;20040;-71
2022/07/11 02:48:36;;;;;;;13.30;3.55;;;;;;;;;;4899416;29;20044;-71
2022/07/11 02:51:01;;;;;;;8.60;3.20;;;15.30;99.90;;;;;;4883759;29;20455;-71
2022/07/11 02:53:27;;;;;;;18.48;3.55;;;;;;;;;;4883415;29;20052;-71
2022/07/11 02:55:54;;;;;;;10.93;3.55;;;;;;;;;;4883201;29;20053;-71
2022/07/11 02:58:20;;;;;;;13.30;3.58;;;;;;;;;;4883390;29;20044;-71
2022/07/11 03:00:46;;;;;;;7.75;3.10;;;;;;;;;;4883295;29;20072;-71
2022/07/11 03:03:12;;;;;;;13.43;3.13;;;;;;;;;;4867472;29;20045;-71
2022/07/11 03:05:38;;;;;;;9.25;3.03;;;;;;;;;;4899922;29;20536;-71
2022/07/11 03:08:04;;;;;;;7.90;2.80;;;;;;;;;;4883608;29;20401;-71
2022/07/11 03:10:30;;;;;;;8.75;3.45;;;;;;;;;;4883438;29;20048;-71
2022/07/11 03:12:56;;;;;;;8.20;3.15;;;;;;;;;;4883164;29;20492;-71
2022/07/11 03:15:22;;;;;;;9.10;3.10;;;;;;;;;;4883029;29;20043;-71
2022/07/11 03:17:49;;;;;;;8.00;3.00;;;;;;;;;;4883071;29;20044;-71
2022/07/11 03:20:15;;;;;;;8.93;3.30;;;;;;;;;;4883264;29;20385;-71
2022/07/11 03:22:41;;;;;;;6.20;2.83;;;;;;;;;;4882961;29;20089;-71
2022/07/11 03:25:07;;;;;;;6.72;2.70;;;;;;;;;;4882824;29;20501;-71
2022/07/11 03:27:34;;;;;;;9.65;2.90;;;;;;;;;;4882978;29;20084;-71
2022/07/11 03:30:00;;;;;;;7.30;2.83;;;;;;;;;;4882718;29;20455;-71
2022/07/11 03:32:26;;;;;;;7.07;3.10;;;;;;;;;;4882690;29;20041;-71
2022/07/11 03:37:37;;;;;;;7.88;2.90;;;;;;;;;;4882494;29;20048;-71
2022/07/11 03:40:03;;;;;;;6.35;2.90;;;16.30;99.90;;;;;;4867103;29;20052;-70
2022/07/11 03:42:29;;;;;;;6.55;2.70;;;;;;;;;;4913705;29;20053;-71
2022/07/11 03:44:55;;;;;;;6.07;2.72;;;;;;;;;;4882793;29;20045;-70
2022/07/11 03:47:20;;;;;;;6.13;2.88;;;16.20;99.90;;;;;;4882500;29;20040;-70
2022/07/11 03:49:50;;;;;;;7.45;2.95;;;;;;;;;;4882406;29;20074;-70
2022/07/11 03:52:16;;;;;;;5.65;2.67;;;;;;;;;;4882374;29;20052;-70
2022/07/11 03:54:43;;;;;;;7.65;2.55;;;;;;;;;;4882497;29;20041;-70
2022/07/11 03:57:09;;;;;;;10.82;2.85;;;;;;;;;;4882469;29;20052;-70
2022/07/11 03:59:35;;;;;;;9.65;2.83;;;;;;;;;;4882331;29;20079;-70
2022/07/11 04:02:01;;;;;;;8.27;3.10;;;;;;;;;;4882200;29;20091;-70
2022/07/11 04:04:27;;;;;;;7.15;2.50;;;;;;;;;;4866874;29;20105;-70
2022/07/11 04:06:53;;;;;;;6.95;2.63;;;;;;;;;;4882298;29;20084;-70
2022/07/11 04:09:19;;;;;;;4.50;2.92;;;;;;;;;;4882182;29;20048;-70
2022/07/11 04:11:45;;;;;;;7.20;2.95;;;;;;;;;;4866668;29;20049;-70
2022/07/11 04:14:11;;;;;;;13.75;2.85;;;;;;;;;;4882374;29;20071;-70
2022/07/11 04:16:37;;;;;;;5.97;2.33;;;;;;;;;;4881677;29;20044;-70
2022/07/11 04:19:04;;;;;;;5.18;2.03;;;;;;;;;;4866856;29;20032;-70
2022/07/11 04:21:30;;;;;;;7.50;2.15;;;;;;;;;;4882312;29;20072;-70
2022/07/11 04:23:56;;;;;;;6.15;2.38;;;;;;;;;;4882039;29;20142;-70
2022/07/11 04:26:22;;;;;;;6.65;2.58;;;;;;;;;;4881874;29;20100;-70
2022/07/11 04:28:48;;;;;;;6.47;1.98;;;;;;;;;;4897349;29;20055;-71
2022/07/11 04:31:14;;;;;;;10.13;2.50;;;;;;;;;;4897429;29;20132;-70
2022/07/11 04:33:40;;;;;;;4.78;1.80;;;;;;;;;;4881797;29;20040;-71
2022/07/11 04:36:06;;;;;;;6.05;1.98;;;;;;;;;;4882025;29;20076;-71
2022/07/11 04:38:32;;;;;;;5.10;1.70;;;;;;;;;;4881653;29;20100;-71
2022/07/11 04:40:58;;;;;;;5.20;1.90;;;16.30;99.90;;;;;;4881616;29;20075;-71
2022/07/11 04:43:24;;;;;;;4.38;1.98;;;;;;;;;;4913007;29;20076;-70
2022/07/11 04:45:50;;;;;;;4.40;1.73;;;;;;;;;;4881922;29;20469;-71
2022/07/11 04:48:16;;;;;;;4.88;1.75;;;;;;;;;;4881731;29;20044;-70
2022/07/11 04:50:44;;;;;;;7.40;2.10;;;15.80;99.90;;;;;;4886238;29;20079;-71
2022/07/11 04:53:11;;;;;;;4.30;1.80;;;;;;;;;;4900190;29;20047;-71
2022/07/11 04:55:40;;;;;;;6.30;2.10;;;;;;;;;;4862993;29;20080;-71
2022/07/11 04:58:07;;;;;;;8.45;2.10;;;;;;;;;;4871740;29;20498;-71
2022/07/11 05:00:33;;;;;;;5.43;2.13;;;;;;;;;;4872630;29;20478;-71
2022/07/11 05:02:59;;;;;;;7.57;1.85;;;;;;;;;;4872409;29;20099;-71
2022/07/11 05:05:25;;;;;;;5.00;1.63;;;;;;;;;;4856110;29;20053;-71
2022/07/11 05:07:52;;;;;;;4.30;1.33;;;;;;;;;;4865496;29;20131;-71
2022/07/11 05:10:18;;;;;;;7.10;1.77;;;;;;;;;;4873346;29;20510;-71
2022/07/11 05:12:44;;;;;;;4.80;1.80;;;;;;;;;;4871597;29;20045;-71
2022/07/11 05:15:10;;;;;;;4.00;1.77;;;;;;;;;;4856858;29;20037;-71
2022/07/11 05:17:36;;;;;;;6.00;1.67;;;;;;;;;;4869458;29;20041;-71
2022/07/11 05:20:04;;;;;;;6.22;1.65;;;15.70;99.90;;;;;;4872202;29;20119;-71
2022/07/11 05:22:30;;;;;;;4.70;1.75;;;;;;;;;;4872010;29;20379;-71
2022/07/11 05:24:56;;;;;;;6.00;1.60;;;;;;;;;;4870144;29;20077;-71
2022/07/11 05:27:22;;;;;;;2.58;1.30;;;;;;;;;;4858179;29;20040;-72
2022/07/11 05:29:49;;;;;;;3.88;1.50;;;;;;;;;;4876195;29;20520;-71
2022/07/11 05:32:15;;;;;;;3.90;1.27;;;;;;;;;;4878031;29;20076;-71
2022/07/11 05:34:41;;;;;;;3.15;1.20;;;;;;;;;;4884855;29;20072;-71
2022/07/11 05:37:07;;;;;;;4.82;1.88;;;;;;;;;;4869074;29;20057;-72
2022/07/11 05:39:33;;;;;;;5.38;1.20;;;;;;;;;;4900285;29;20044;-71
2022/07/11 05:41:59;;;;;;;6.40;1.55;;;;;;;;;;4881384;29;20132;-71
2022/07/11 05:44:26;;;;;;;3.55;1.40;;;;;;;;;;4884987;29;20048;-72
2022/07/11 05:46:52;;;;;;;4.20;1.17;;;;;;;;;;4884866;29;20087;-72
2022/07/11 05:49:18;;;;;;;4.25;1.05;;;;;;;;;;4918869;29;20044;-72
2022/07/11 05:51:44;;;;;;;5.60;1.55;;;;;;;;;;4903069;29;20123;-72
2022/07/11 05:54:09;;;;;;;4.35;1.80;;;15.50;99.90;;;;;;4903433;29;20040;-72
2022/07/11 05:56:35;;;;;;;8.07;1.88;;;15.60;99.90;;;;;;4903351;29;20075;-72
2022/07/11 05:59:01;;;;;;;4.28;1.63;;;15.00;99.90;;;;;;4903193;29;20127;-72
2022/07/11 06:01:27;;;;;;;5.60;1.98;;;;;;;;;;4887722;29;20048;-72
2022/07/11 06:03:53;;;;;;;9.02;1.80;;;;;;;;;;4902739;29;20048;-72
2022/07/11 06:06:19;;;;;;;5.72;1.95;;;;;;;;;;4902991;29;20048;-71
2022/07/11 06:08:45;;;;;;;6.57;2.22;;;;;;;;;;4902899;29;20488;-72
2022/07/11 06:11:14;;;;;;;6.30;1.92;;;;;;;;;;4902894;29;20100;-72
2022/07/11 06:13:41;;;;;;;6.72;2.30;;;15.80;99.90;;;;;;4887325;29;20055;-72
2022/07/11 06:16:08;;;;;;;4.82;1.90;;;15.60;99.90;;;;;;4890357;29;20084;-72
2022/07/11 06:18:37;;;;;;;4.63;1.70;;;16.30;99.90;;;;;;4869504;29;20036;-72
2022/07/11 06:21:04;;;;;;;3.17;1.55;;;16.00;99.90;;;;;;4881915;29;20094;-72
2022/07/11 06:23:31;;;;;;;2.92;1.45;;;15.90;99.90;;;;;;4850003;29;20045;-71
2022/07/11 06:25:57;;;;;;;4.82;1.60;;;15.90;99.90;;;;;;4849285;29;20053;-72
2022/07/11 06:28:24;;;;;;;4.60;1.35;;;;;;;;;;4863775;29;20052;-72
2022/07/11 06:30:50;;;;;;;11.25;1.90;;;;;;;;;;4848443;29;20443;-71
2022/07/11 06:33:17;;;;;;;4.55;1.50;;;;;;;;;;4849401;29;20052;-71
2022/07/11 06:35:43;;;;;;;2.83;1.35;;;;;;;;;;4863907;29;20498;-71
2022/07/11 06:38:09;;;;;;;6.97;1.40;;;15.70;99.90;;;;;;4864361;29;20485;-71
2022/07/11 06:40:34;;;;;;;4.60;1.20;;;15.00;99.90;;;;;;4880224;29;20048;-71
2022/07/11 06:43:00;;;;;;;2.35;1.05;;;;;;;;;;4881438;29;20041;-71
2022/07/11 06:45:26;;;;;;;3.75;1.27;;;;;;;;;;4865189;29;20044;-71
2022/07/11 06:47:52;;;;;;;2.97;0.90;;;;;;;;;;4865068;29;20056;-71
2022/07/11 06:50:19;;;;;;;11.35;1.10;;;;;;;;;;4867269;29;20044;-71
2022/07/11 06:52:48;;;;;;;1.67;0.80;;;;;;;;;;4882968;29;20044;-71
2022/07/11 06:55:14;;;;;;;0.75;0.70;;;;;;;;;;4883684;29;20378;-71
2022/07/11 06:57:40;;;;;;;1.80;0.70;;;;;;;;;;4883459;29;20193;-70
2022/07/11 07:00:10;;;;;;;1.00;0.73;;;;;;;;;;4883241;29;20109;-70
2022/07/11 07:02:38;;;;;;;0.73;0.50;;;;;;;;;;4851169;29;20055;-70
2022/07/11 07:05:05;;;;;;;1.42;0.63;;;16.30;99.90;;;;;;4883438;29;20056;-70
2022/07/11 07:07:31;;;;;;;1.20;0.60;;;17.30;99.90;;;;;;4914840;29;20405;-70
2022/07/11 07:09:57;;;;;;;1.67;0.70;;;16.50;99.90;;;;;;4914899;29;20113;-70
2022/07/11 07:12:23;;;;;;;2.53;0.90;;;;;;;;;;4883344;29;20041;-71
2022/07/11 07:14:49;;;;;;;1.02;0.60;;;;;;;;;;4883382;29;20052;-71
2022/07/11 07:17:15;;;;;;;0.90;0.75;;;;;;;;;;4883362;29;20116;-71
2022/07/11 07:19:42;;;;;;;1.20;0.80;;;;;;;;;;4883350;29;20127;-71
2022/07/11 07:22:08;;;;;;;0.82;0.70;;;;;;;;;;4883066;29;20214;-71
2022/07/11 07:24:36;;;;;;;1.05;0.75;;;17.20;99.90;;;;;;4882832;29;20131;-71
2022/07/11 07:27:05;;;;;;;0.73;0.63;;;16.80;99.90;;;;;;4883135;29;20501;-71
2022/07/11 07:29:32;;;;;;;0.73;0.70;;;;;;;;;;4867485;29;20476;-71
2022/07/11 07:31:59;;;;;;;1.27;1.00;;;;;;;;;;4882789;29;20045;-71
2022/07/11 07:34:25;;;;;;;1.48;0.80;;;;;;;;;;4883109;29;20049;-70
2022/07/11 07:36:51;;;;;;;0.82;0.52;;;;;;;;;;4882822;29;20036;-71
2022/07/11 07:39:17;;;;;;;1.50;0.70;;;;;;;;;;4882796;29;20045;-71
2022/07/11 07:41:43;;;;;;;1.58;0.55;;;;;;;;;;4882671;29;20049;-71
2022/07/11 07:44:10;;;;;;;4.45;0.80;;;;;;;;;;4882673;29;20104;-71
2022/07/11 07:46:36;;;;;;;1.30;0.60;;;;;;;;;;4882653;29;20084;-71
2022/07/11 07:49:02;;;;;;;1.13;0.70;;;;;;;;;;4867168;29;20056;-71
2022/07/11 07:51:29;;;;;;;0.70;0.70;;;;;;;;;;4881671;29;20044;-71
2022/07/11 07:53:55;;;;;;;1.05;0.65;;;;;;;;;;4882659;29;20485;-71
2022/07/11 07:56:21;;;;;;;1.33;0.65;;;;;;;;;;4882687;29;20080;-71
2022/07/11 07:58:47;;;;;;;0.50;0.50;;;;;;;;;;4882310;29;20048;-71
2022/07/11 08:04:00;;;;;;;0.93;0.70;;;;;;;;;;4882179;29;20055;-71
2022/07/11 08:06:26;;;;;;;2.15;0.65;;;;;;;;;;4899128;29;20524;-71
2022/07/11 08:08:52;;;;;;;0.68;0.52;;;;;;;;;;4882481;29;20044;-71
2022/07/11 08:11:18;;;;;;;0.88;0.55;;;;;;;;;;4881829;29;20048;-72
2022/07/11 08:13:44;;;;;;;1.25;0.68;;;;;;;;;;4880011;29;20056;-72
2022/07/11 08:16:10;;;;;;;1.73;0.68;;;;;;;;;;4880263;29;20488;-72
2022/07/11 08:18:36;;;;;;;2.67;1.10;;;;;;;;;;4881944;29;20044;-71
2022/07/11 08:21:03;;;;;;;4.53;1.10;;;;;;;;;;4880790;29;20374;-71
2022/07/11 08:23:29;;;;;;;3.35;0.80;;;;;;;;;;4881567;29;20047;-71
2022/07/11 08:25:55;;;;;;;4.65;0.90;;;;;;;;;;4881189;29;20049;-71
2022/07/11 08:28:22;;;;;;;4.65;1.00;;;;;;;;;;4882295;29;20389;-71
2022/07/11 08:30:48;;;;;;;5.05;0.80;;;;;;;;;;4859643;29;20045;-71
2022/07/11 08:33:14;;;;;;;7.28;1.17;;;;;;;;;;4873634;29;20173;-71
2022/07/11 08:35:40;;;;;;;1.80;0.80;;;;;;;;;;4872310;29;20053;-71
2022/07/11 08:38:06;;;;;;;0.90;0.80;;;;;;;;;;4872978;29;20044;-71
2022/07/11 08:40:32;;;;;;;4.18;1.02;;;;;;;;;;4873026;29;20048;-71
2022/07/11 08:42:58;;;;;;;3.03;1.08;;;17.50;99.90;;;;;;4875946;29;20051;-71
2022/07/11 08:45:29;;;;;;;2.90;0.80;;;;;;;;;;4888329;29;20111;-71
2022/07/11 08:47:57;;;;;;;1.40;0.60;;;17.20;99.90;;;;;;4872849;29;20036;-69
2022/07/11 08:50:23;;;;;;;2.10;0.90;;;17.70;99.90;;;;;;4872538;29;20045;-71
2022/07/11 08:52:49;;;;;;;1.90;0.80;;;;;;;;;;4870730;29;20059;-71
2022/07/11 08:55:15;;;;;;;1.88;0.90;;;;;;;;;;4872607;29;20083;-71
2022/07/11 08:57:41;;;;;;;2.80;0.80;;;17.50;99.90;;;;;;4871736;29;20045;-71
2022/07/11 09:00:09;;;;;;;3.08;0.90;;;18.30;99.90;;;;;;4871062;29;20081;-71
2022/07/11 09:02:36;;;;;;;3.00;0.80;;;;;;;;;;4872172;29;20056;-71
2022/07/11 09:05:05;;;;;;;1.27;1.00;;;17.60;99.90;;;;;;4871669;29;20482;-71
2022/07/11 09:07:32;;;;;;;1.00;0.70;;;;;;;;;;4886216;29;20060;-71
2022/07/11 09:09:57;;;;;;;1.20;1.00;;;17.00;99.90;;;;;;4886524;29;20037;-71
2022/07/11 09:12:23;;;;;;;2.92;1.13;;;18.40;99.90;;;;;;4862759;29;20458;-71
2022/07/11 09:14:51;;;;;;;4.90;0.90;;;17.80;99.90;;;;;;4879557;29;20053;-70
2022/07/11 09:17:26;;;;;;;2.30;0.90;;;17.80;99.90;;;;;;4862846;29;20041;-70
2022/07/11 09:19:52;;;;;;;2.90;0.90;;;;;;;;;;4862657;29;20053;-70
2022/07/11 09:25:31;;;;;;;1.33;0.75;;;17.70;99.90;;;;;;4860903;29;20064;-70
2022/07/11 09:28:06;;;;;;;2.90;1.40;;;16.90;99.90;;;;;;4878324;29;20041;-70
2022/07/11 09:30:35;;;;;;;2.67;0.95;;;17.90;99.90;;;;;;4877940;29;20053;-70
2022/07/11 09:33:03;;;;;;;0.95;0.60;;;18.00;99.90;;;;;;4862445;29;20045;-70
2022/07/11 09:35:34;;;;;;;8.43;1.17;;;18.20;99.90;;;;;;4862551;29;20056;-70
2022/07/11 09:38:21;;;;;;;2.03;0.52;;;18.20;99.90;;;;;;4879433;29;20593;-75
2022/07/11 09:40:48;;;;;;;1.35;0.70;;;18.20;99.90;;;;;;4847257;29;20045;-70
2022/07/11 09:43:15;;;;;;;0.93;0.85;;;18.20;99.90;;;;;;4862322;29;20045;-70
2022/07/11 09:45:41;;;;;;;7.10;1.40;;;18.30;99.90;;;;;;4862668;29;20442;-70
2022/07/11 09:48:13;;;;;;;1.60;0.90;;;19.10;99.90;;;;;;4862718;29;20057;-70
2022/07/11 09:50:41;;;;;;;;;;;18.20;99.90;;;;;;4879506;29;20045;-70
2022/07/11 09:53:16;;;;;;;1.42;0.60;;;18.10;99.90;;;;;;4879243;29;19975;-72
2022/07/11 09:55:45;;;;;;;2.13;0.70;;;18.30;99.90;;;;;;4846913;29;20512;-71
2022/07/11 09:58:13;;;;;;;1.60;0.80;;;18.50;99.90;;;;;;4879141;29;20033;-75
2022/07/11 10:00:40;;;;;;;9.52;2.05;;;18.30;99.90;;;;;;4863966;29;20049;-75
2022/07/11 10:03:08;;;;;;;0.93;0.80;;;18.50;99.90;;;;;;4866121;29;20057;-69
2022/07/11 10:05:34;;;;;;;0.70;0.70;;;18.70;99.90;;;;;;4862071;29;20084;-70
2022/07/11 10:08:01;;;;;;;1.30;0.90;;;18.50;99.90;;;;;;4862474;29;20537;-70
2022/07/11 10:10:29;;;;;;;6.15;1.23;;;18.50;99.90;;;;;;4862218;29;20056;-70
2022/07/11 10:12:56;;;;;;;2.03;0.90;;;19.30;99.90;;;;;;4862149;29;20048;-70
2022/07/11 10:15:34;;;;;;;3.67;1.40;;;17.40;99.90;;;;;;4849786;29;20124;-70
2022/07/11 10:18:03;;;;;;;2.15;0.93;;;18.90;99.90;;;;;;4865593;29;20052;-70
2022/07/11 10:20:48;;;;;;;2.20;1.10;;;19.50;99.90;;;;;;4865371;29;20041;-70
2022/07/11 10:23:14;;;;;;;1.20;1.05;;;;;;;;;;4865676;29;20048;-70
2022/07/11 10:25:56;;;;;;;5.82;1.13;;;18.60;99.90;;;;;;4865392;29;20410;-70
2022/07/11 10:28:46;;;;;;;2.95;1.13;;;17.70;99.90;;;;;;4849961;29;20123;-74
2022/07/11 10:31:19;;;;;;;4.75;1.58;;;19.30;99.90;;;;;;4865243;29;20494;-69
2022/07/11 10:34:05;;;;;;;1.95;0.82;;;18.60;99.90;;;;;;4865471;29;20084;-68
2022/07/11 10:36:40;;;;;;;1.30;1.00;;;18.70;99.90;;;;;;4865128;29;20478;-68
2022/07/11 10:39:21;;;;;;;2.05;1.10;;;18.60;99.90;;;;;;4865185;29;20124;-75
2022/07/11 10:41:47;;;;;;;2.40;1.10;;;;;;;;;;4865172;29;20505;-69
2022/07/11 10:44:14;;;;;;;3.60;1.15;;;;;;;;;;4864951;29;20049;-70
2022/07/11 10:46:40;;;;;;;5.18;1.00;;;;;;;;;;4881549;29;20087;-70
2022/07/11 10:49:17;;;;;;;2.80;1.10;;;18.90;99.90;;;;;;4881783;29;20479;-68
2022/07/11 10:51:49;;;;;;;9.20;1.70;;;18.10;99.90;;;;;;4864705;29;20482;-73
2022/07/11 10:54:36;;;;;;;4.28;1.40;;;19.70;99.90;;;;;;4864988;29;20053;-74
2022/07/11 10:57:25;;;;;;;4.72;1.40;;;19.30;99.90;;;;;;4865253;29;20459;-70
2022/07/11 11:00:11;;;;;;;2.60;1.17;;;18.90;99.90;;;;;;4864753;29;20072;-68
2022/07/11 11:03:06;;;;;;;4.93;1.33;;;19.20;99.90;;;;;;4864793;29;20447;-67
2022/07/11 11:05:54;;;;;;;1.30;1.10;;;19.40;99.90;;;;;;4864519;29;20053;-67
2022/07/11 11:08:41;;;;;;;3.70;1.30;;;18.50;99.90;;;;;;4849776;29;20048;-67
2022/07/11 11:11:22;;;;;;;2.90;1.00;;;19.00;99.90;;;;;;4864819;29;20053;-70
2022/07/11 11:14:20;;;;;;;2.33;1.23;;;19.20;99.90;;;;;;4864846;29;20136;-68
2022/07/11 11:16:45;;;;;;;0.95;0.95;;;19.90;99.90;;;;;;4865101;29;20132;-67
2022/07/11 11:19:49;;;;;;;1.17;1.08;;;19.10;99.90;;;;;;4863845;29;20119;-68
2022/07/11 11:22:17;;;;;;;1.10;1.00;;;19.10;99.90;;;;;;4863663;29;20045;-68
2022/07/11 11:24:45;;;;;;;0.85;0.80;;;19.00;99.90;;;;;;4863794;29;20056;-68
2022/07/11 11:27:21;;;;;;;1.60;0.90;;;20.00;99.90;;;;;;4863009;29;20113;-68
2022/07/11 11:29:48;;;;;;;2.42;1.00;;;;;;;;;;4864255;29;20514;-68
2022/07/11 11:32:14;;;;;;;4.30;1.55;;;;;;;;;;4864454;29;20037;-68
2022/07/11 11:34:43;;;;;;;3.33;1.60;;;;;;;;;;4864481;29;20075;-68
2022/07/11 11:37:09;;;;;;;1.80;1.27;;;;;;;;;;4864157;29;20052;-68
2022/07/11 11:39:40;;;;;;;3.88;1.50;;;19.20;99.90;;;;;;4864262;29;20109;-68
2022/07/11 11:42:12;;;;;;;5.30;1.70;;;20.20;99.90;;;;;;4864459;29;20368;-68
2022/07/11 11:44:53;;;;;;;4.10;2.10;;;19.10;99.80;;;;;;4880877;29;20525;-68
2022/07/11 11:47:20;;;;;;;3.97;2.05;;;;;;;;;;4863863;29;20112;-68
2022/07/11 11:49:47;;;;;;;4.15;2.00;;;18.70;99.90;;;;;;4864126;29;20438;-68
2022/07/11 11:52:13;;;;;;;4.55;1.80;;;18.90;99.90;;;;;;4863885;29;20490;-68
2022/07/11 11:54:39;;;;;;;2.58;1.50;;;;;;;;;;4863580;29;20052;-67
2022/07/11 11:57:07;;;;;;;1.67;1.42;;;18.70;99.90;;;;;;4863866;29;20055;-67
2022/07/11 11:59:33;;;;;;;1.92;1.50;;;;;;;;;;4885638;29;20079;-67
2022/07/11 12:01:59;;;;;;;2.65;1.80;;;;;;;;;;4900823;29;20519;-68
2022/07/11 12:04:32;;;;;;;2.17;1.50;;;19.00;99.90;;;;;;4900790;29;20095;-67
2022/07/11 12:06:58;;;;;;;6.25;1.88;;;;;;;;;;4900829;29;20099;-67
2022/07/11 12:09:46;;;;;;;2.17;1.60;;;;;;;;;;4885700;29;20127;-67
2022/07/11 12:14:55;;;;;;;4.68;2.30;;;;;;;;;;4900643;29;20118;-67
2022/07/11 12:17:31;;;;;;;4.93;2.08;;;19.00;99.90;;;;;;4900825;29;20051;-67
2022/07/11 12:19:57;;;;;;;2.25;1.75;;;;;;;;;;4901093;29;20048;-67
2022/07/11 12:22:23;;;;;;;4.28;2.33;;;;;;;;;;4885420;29;20100;-67
2022/07/11 12:24:51;;;;;;;3.40;2.00;;;18.90;99.90;;;;;;4917641;29;20096;-67
2022/07/11 12:27:25;;;;;;;2.97;1.67;;;19.40;99.90;;;;;;4900781;29;20098;-68
2022/07/11 12:29:52;;;;;;;4.93;2.38;;;;;;;;;;4917795;29;20054;-67
2022/07/11 12:32:19;;;;;;;4.72;1.92;;;18.00;99.90;;;;;;4900251;29;20067;-67
2022/07/11 12:34:46;;;;;;;2.80;1.75;;;19.00;99.90;;;;;;4900737;29;20059;-67
2022/07/11 12:37:20;;;;;;;4.47;2.40;;;19.70;99.90;;;;;;4916946;29;20044;-67
2022/07/11 12:39:52;;;;;;;7.05;2.30;;;19.10;99.90;;;;;;4900337;29;20481;-67
2022/07/11 12:42:32;;;;;;;5.47;3.20;;;19.50;99.90;;;;;;4900333;29;20408;-67
2022/07/11 12:44:59;;;;;;;5.78;2.90;;;;;;;;;;4900197;29;20055;-67
2022/07/11 12:47:27;;;;;;;4.50;2.40;;;19.00;99.90;;;;;;4899855;29;20413;-67
2022/07/11 12:49:54;;;;;;;6.13;2.65;;;;;;;;;;4900434;29;20067;-67
2022/07/11 12:52:20;;;;;;;6.00;2.65;;;;;;;;;;4900004;29;20412;-67
2022/07/11 12:54:46;;;;;;;5.40;3.10;;;;;;;;;;4869277;29;20075;-67
2022/07/11 12:57:21;;;;;;;3.20;2.50;;;18.90;99.90;;;;;;4884583;29;20044;-67
2022/07/11 12:59:48;;;;;;;4.28;2.13;;;;;;;;;;4900368;29;20055;-67
2022/07/11 13:02:14;;;;;;;4.05;2.25;;;19.00;99.90;;;;;;4899876;29;20531;-67
2022/07/11 13:04:49;;;;;;;6.88;2.60;;;19.00;99.90;;;;;;4899852;29;20141;-67
2022/07/11 13:10:23;;;;;;;7.63;2.85;;;19.10;99.90;;;;;;4887001;29;20124;-67
2022/07/11 13:12:52;;;;;;;5.28;2.72;;;18.70;99.90;;;;;;4916947;29;20040;-67
2022/07/11 13:15:18;;;;;;;3.80;2.13;;;;;;;;;;4899965;29;20056;-67
2022/07/11 13:17:50;;;;;;;4.65;2.40;;;19.00;99.90;;;;;;4900246;29;20119;-67
2022/07/11 13:20:19;;;;;;;3.78;1.90;;;19.60;99.90;;;;;;4917137;29;20044;-67
2022/07/11 13:22:46;;;;;;;4.35;2.38;;;19.10;99.90;;;;;;4900184;29;20044;-67
2022/07/11 13:25:14;;;;;;;5.25;2.30;;;19.00;99.90;;;;;;4900088;29;20267;-67
2022/07/11 13:27:42;;;;;;;2.85;2.13;;;19.30;99.90;;;;;;4899786;29;20511;-67
2022/07/11 13:30:16;;;;;;;3.90;2.13;;;19.20;99.90;;;;;;4899703;29;20052;-67
2022/07/11 13:32:45;;;;;;;4.72;2.22;;;19.30;99.90;;;;;;4885192;29;20044;-67
2022/07/11 13:35:12;;;;;;;3.72;1.98;;;19.70;99.90;;;;;;4916961;29;20063;-67
2022/07/11 13:37:40;;;;;;;4.68;1.70;;;19.40;99.90;;;;;;4900604;29;20397;-67
2022/07/11 13:40:08;;;;;;;4.85;2.20;;;18.20;99.90;;;;;;4900196;29;20123;-67
2022/07/11 13:42:35;;;;;;;3.55;2.20;;;18.80;99.90;;;;;;4899768;29;20048;-67
2022/07/11 13:45:01;;;;;;;3.90;2.33;;;;;;;;;;4900044;29;20401;-67
2022/07/11 13:47:28;;;;;;;5.07;2.60;;;;;;;;;;4900101;29;20048;-67
2022/07/11 13:49:54;;;;;;;5.00;2.40;;;;;;;;;;4903706;29;20129;-67
2022/07/11 13:52:20;;;;;;;3.80;2.40;;;;;;;;;;4887593;29;20116;-68
2022/07/11 13:54:46;;;;;;;5.63;2.40;;;19.10;99.90;;;;;;4903191;29;20055;-67
2022/07/11 13:57:11;;;;;;;4.63;2.22;;;18.20;99.90;;;;;;4920109;29;20104;-68
2022/07/11 13:59:39;;;;;;;3.22;2.10;;;17.90;99.90;;;;;;4903476;29;20040;-68
2022/07/11 14:02:06;;;;;;;9.82;2.28;;;18.50;99.90;;;;;;4903581;29;20044;-67
2022/07/11 14:04:32;;;;;;;4.70;1.80;;;;;;;;;;4902797;29;20131;-67
2022/07/11 14:06:58;;;;;;;4.45;2.40;;;18.00;99.90;;;;;;4902993;29;20131;-67
2022/07/11 14:09:24;;;;;;;8.82;2.97;;;;;;;;;;4900930;29;20131;-71
2022/07/11 14:11:50;;;;;;;9.18;2.90;;;;;;;;;;4887253;29;20408;-67